Calvary, Kentucky
Current Conditions -  °F | °C
As of 12:15 PM on Sunday 23 Nov 2014 (Local Time) from K6I2 Reporting Station
Broken Clouds Broken Clouds  
Wind Chill: 57°   Ceiling: 5500
Heat Index: 57°   Visibility: 10mi
Dew Point: 46°   Wind: 15mph
Humidity: 67%   Direction: 140°SE
Pressure: 29.8"   Gusts: NA
Location:  37.5611°N, 85.2641°W
Report Text: K6I2 231715Z AUTO 14013KT 10SM BKN055 14/08 A2980 RMK AO2
Loading
Personal Weather Stations






























Interactive Weather Map New forecast layout! Learn more

10-Day Weather Forecast

Advertisements
Track Severe Weather on mobile